sensor_id;sensor_type;location;lat;lon;timestamp;P1;durP1;ratioP1;P2;durP2;ratioP2
15996;SDS011;8103;51.340;12.326;2024-03-25T00:01:17;3.20;;;2.25;;
15996;SDS011;8103;51.340;12.326;2024-03-25T00:03:43;3.72;;;1.80;;
15996;SDS011;8103;51.340;12.326;2024-03-25T00:06:09;5.93;;;2.25;;
15996;SDS011;8103;51.340;12.326;2024-03-25T00:08:34;4.82;;;1.80;;
15996;SDS011;8103;51.340;12.326;2024-03-25T00:11:00;3.03;;;1.83;;
15996;SDS011;8103;51.340;12.326;2024-03-25T00:13:26;2.95;;;2.25;;
15996;SDS011;8103;51.340;12.326;2024-03-25T00:15:51;4.20;;;2.00;;
15996;SDS011;8103;51.340;12.326;2024-03-25T00:18:17;4.75;;;2.53;;
15996;SDS011;8103;51.340;12.326;2024-03-25T00:20:43;2.45;;;2.25;;
15996;SDS011;8103;51.340;12.326;2024-03-25T00:23:09;2.10;;;1.92;;
15996;SDS011;8103;51.340;12.326;2024-03-25T00:25:35;4.35;;;2.25;;
15996;SDS011;8103;51.340;12.326;2024-03-25T00:28:00;3.67;;;1.60;;
15996;SDS011;8103;51.340;12.326;2024-03-25T00:30:26;2.25;;;2.05;;
15996;SDS011;8103;51.340;12.326;2024-03-25T00:32:52;2.70;;;1.85;;
15996;SDS011;8103;51.340;12.326;2024-03-25T00:35:17;3.80;;;1.98;;
15996;SDS011;8103;51.340;12.326;2024-03-25T00:37:43;2.65;;;1.45;;
15996;SDS011;8103;51.340;12.326;2024-03-25T00:40:10;1.50;;;1.40;;
15996;SDS011;8103;51.340;12.326;2024-03-25T00:42:37;2.47;;;1.35;;
15996;SDS011;8103;51.340;12.326;2024-03-25T00:45:03;2.58;;;1.40;;
15996;SDS011;8103;51.340;12.326;2024-03-25T00:47:31;2.72;;;1.48;;
15996;SDS011;8103;51.340;12.326;2024-03-25T00:49:57;1.65;;;1.42;;
15996;SDS011;8103;51.340;12.326;2024-03-25T00:52:23;4.55;;;1.35;;
15996;SDS011;8103;51.340;12.326;2024-03-25T00:54:48;1.75;;;1.33;;
15996;SDS011;8103;51.340;12.326;2024-03-25T00:57:14;2.85;;;1.50;;
15996;SDS011;8103;51.340;12.326;2024-03-25T00:59:40;4.60;;;1.40;;
15996;SDS011;8103;51.340;12.326;2024-03-25T01:02:06;2.45;;;1.48;;
15996;SDS011;8103;51.340;12.326;2024-03-25T01:04:33;3.90;;;1.63;;
15996;SDS011;8103;51.340;12.326;2024-03-25T01:06:59;2.28;;;1.50;;
15996;SDS011;8103;51.340;12.326;2024-03-25T01:09:25;2.85;;;1.65;;
15996;SDS011;8103;51.340;12.326;2024-03-25T01:11:51;1.35;;;1.25;;
15996;SDS011;8103;51.340;12.326;2024-03-25T01:14:16;2.05;;;1.40;;
15996;SDS011;8103;51.340;12.326;2024-03-25T01:16:42;2.78;;;1.42;;
15996;SDS011;8103;51.340;12.326;2024-03-25T01:19:08;1.50;;;1.23;;
15996;SDS011;8103;51.340;12.326;2024-03-25T01:21:34;2.72;;;1.50;;
15996;SDS011;8103;51.340;12.326;2024-03-25T01:24:00;1.35;;;1.25;;
15996;SDS011;8103;51.340;12.326;2024-03-25T01:26:26;1.42;;;0.90;;
15996;SDS011;8103;51.340;12.326;2024-03-25T01:28:52;3.47;;;1.10;;
15996;SDS011;8103;51.340;12.326;2024-03-25T01:31:18;1.83;;;1.23;;
15996;SDS011;8103;51.340;12.326;2024-03-25T01:33:44;1.17;;;1.08;;
15996;SDS011;8103;51.340;12.326;2024-03-25T01:36:10;1.73;;;1.23;;
15996;SDS011;8103;51.340;12.326;2024-03-25T01:38:41;4.32;;;1.63;;
15996;SDS011;8103;51.340;12.326;2024-03-25T01:41:08;3.83;;;1.30;;
15996;SDS011;8103;51.340;12.326;2024-03-25T01:43:35;1.88;;;1.45;;
15996;SDS011;8103;51.340;12.326;2024-03-25T01:46:01;1.27;;;1.10;;
15996;SDS011;8103;51.340;12.326;2024-03-25T01:48:26;3.55;;;1.30;;
15996;SDS011;8103;51.340;12.326;2024-03-25T01:50:53;1.90;;;1.40;;
15996;SDS011;8103;51.340;12.326;2024-03-25T01:53:19;2.30;;;1.25;;
15996;SDS011;8103;51.340;12.326;2024-03-25T01:55:44;2.10;;;1.02;;
15996;SDS011;8103;51.340;12.326;2024-03-25T01:58:11;2.15;;;1.40;;
15996;SDS011;8103;51.340;12.326;2024-03-25T02:00:37;4.72;;;1.58;;
15996;SDS011;8103;51.340;12.326;2024-03-25T02:03:03;4.43;;;1.25;;
15996;SDS011;8103;51.340;12.326;2024-03-25T02:05:30;2.20;;;1.05;;
15996;SDS011;8103;51.340;12.326;2024-03-25T02:07:57;4.20;;;1.50;;
15996;SDS011;8103;51.340;12.326;2024-03-25T02:10:23;2.22;;;1.30;;
15996;SDS011;8103;51.340;12.326;2024-03-25T02:12:50;2.40;;;1.02;;
15996;SDS011;8103;51.340;12.326;2024-03-25T02:15:16;2.50;;;1.20;;
15996;SDS011;8103;51.340;12.326;2024-03-25T02:17:43;2.03;;;1.13;;
15996;SDS011;8103;51.340;12.326;2024-03-25T02:20:09;2.47;;;1.60;;
15996;SDS011;8103;51.340;12.326;2024-03-25T02:22:36;3.00;;;1.23;;
15996;SDS011;8103;51.340;12.326;2024-03-25T02:25:03;1.88;;;1.30;;
15996;SDS011;8103;51.340;12.326;2024-03-25T02:27:31;1.88;;;1.20;;
15996;SDS011;8103;51.340;12.326;2024-03-25T02:30:04;1.88;;;1.20;;
15996;SDS011;8103;51.340;12.326;2024-03-25T02:32:34;1.73;;;1.23;;
15996;SDS011;8103;51.340;12.326;2024-03-25T02:35:01;4.28;;;1.60;;
15996;SDS011;8103;51.340;12.326;2024-03-25T02:37:29;3.40;;;1.48;;
15996;SDS011;8103;51.340;12.326;2024-03-25T02:39:57;2.40;;;1.67;;
15996;SDS011;8103;51.340;12.326;2024-03-25T02:42:27;2.05;;;1.23;;
15996;SDS011;8103;51.340;12.326;2024-03-25T02:44:54;3.17;;;1.50;;
15996;SDS011;8103;51.340;12.326;2024-03-25T02:47:20;1.02;;;0.93;;
15996;SDS011;8103;51.340;12.326;2024-03-25T02:49:47;2.92;;;1.17;;
15996;SDS011;8103;51.340;12.326;2024-03-25T02:52:12;1.70;;;1.38;;
15996;SDS011;8103;51.340;12.326;2024-03-25T02:54:38;3.35;;;1.15;;
15996;SDS011;8103;51.340;12.326;2024-03-25T02:57:04;1.92;;;1.33;;
15996;SDS011;8103;51.340;12.326;2024-03-25T02:59:30;4.97;;;1.70;;
15996;SDS011;8103;51.340;12.326;2024-03-25T03:01:55;4.57;;;1.40;;
15996;SDS011;8103;51.340;12.326;2024-03-25T03:04:21;1.30;;;1.08;;
15996;SDS011;8103;51.340;12.326;2024-03-25T03:06:47;2.50;;;1.27;;
15996;SDS011;8103;51.340;12.326;2024-03-25T03:09:12;2.10;;;1.20;;
15996;SDS011;8103;51.340;12.326;2024-03-25T03:11:38;2.08;;;1.20;;
15996;SDS011;8103;51.340;12.326;2024-03-25T03:14:04;2.90;;;1.48;;
15996;SDS011;8103;51.340;12.326;2024-03-25T03:16:30;6.85;;;1.40;;
15996;SDS011;8103;51.340;12.326;2024-03-25T03:18:55;5.53;;;1.77;;
15996;SDS011;8103;51.340;12.326;2024-03-25T03:21:21;1.38;;;1.13;;
15996;SDS011;8103;51.340;12.326;2024-03-25T03:23:47;2.22;;;1.27;;
15996;SDS011;8103;51.340;12.326;2024-03-25T03:26:13;3.67;;;1.30;;
15996;SDS011;8103;51.340;12.326;2024-03-25T03:28:39;2.03;;;1.33;;
15996;SDS011;8103;51.340;12.326;2024-03-25T03:31:05;1.83;;;1.02;;
15996;SDS011;8103;51.340;12.326;2024-03-25T03:33:31;3.88;;;1.38;;
15996;SDS011;8103;51.340;12.326;2024-03-25T03:35:57;3.67;;;1.25;;
15996;SDS011;8103;51.340;12.326;2024-03-25T03:38:23;2.03;;;1.85;;
15996;SDS011;8103;51.340;12.326;2024-03-25T03:40:56;2.33;;;1.35;;
15996;SDS011;8103;51.340;12.326;2024-03-25T03:43:25;1.80;;;0.90;;
15996;SDS011;8103;51.340;12.326;2024-03-25T03:45:51;1.35;;;1.25;;
15996;SDS011;8103;51.340;12.326;2024-03-25T03:48:16;2.03;;;1.20;;
15996;SDS011;8103;51.340;12.326;2024-03-25T03:50:42;2.78;;;1.42;;
15996;SDS011;8103;51.340;12.326;2024-03-25T03:53:08;4.88;;;1.90;;
15996;SDS011;8103;51.340;12.326;2024-03-25T03:55:34;3.00;;;1.30;;
15996;SDS011;8103;51.340;12.326;2024-03-25T03:58:00;2.58;;;1.40;;
15996;SDS011;8103;51.340;12.326;2024-03-25T04:00:26;2.20;;;1.40;;
15996;SDS011;8103;51.340;12.326;2024-03-25T04:02:52;1.58;;;1.17;;
15996;SDS011;8103;51.340;12.326;2024-03-25T04:05:18;2.65;;;1.63;;
15996;SDS011;8103;51.340;12.326;2024-03-25T04:07:44;1.48;;;1.35;;
15996;SDS011;8103;51.340;12.326;2024-03-25T04:10:10;2.38;;;1.90;;
15996;SDS011;8103;51.340;12.326;2024-03-25T04:12:36;1.40;;;1.30;;
15996;SDS011;8103;51.340;12.326;2024-03-25T04:15:02;2.42;;;1.35;;
15996;SDS011;8103;51.340;12.326;2024-03-25T04:17:29;3.38;;;1.70;;
15996;SDS011;8103;51.340;12.326;2024-03-25T04:19:54;2.65;;;1.65;;
15996;SDS011;8103;51.340;12.326;2024-03-25T04:22:23;1.98;;;1.58;;
15996;SDS011;8103;51.340;12.326;2024-03-25T04:24:49;3.83;;;1.73;;
15996;SDS011;8103;51.340;12.326;2024-03-25T04:27:15;5.45;;;1.50;;
15996;SDS011;8103;51.340;12.326;2024-03-25T04:29:40;2.47;;;1.30;;
15996;SDS011;8103;51.340;12.326;2024-03-25T04:32:06;1.88;;;1.35;;
15996;SDS011;8103;51.340;12.326;2024-03-25T04:34:32;1.67;;;1.30;;
15996;SDS011;8103;51.340;12.326;2024-03-25T04:36:58;4.43;;;1.92;;
15996;SDS011;8103;51.340;12.326;2024-03-25T04:39:25;7.22;;;1.75;;
15996;SDS011;8103;51.340;12.326;2024-03-25T04:41:50;4.47;;;1.70;;
15996;SDS011;8103;51.340;12.326;2024-03-25T04:44:16;4.68;;;1.70;;
15996;SDS011;8103;51.340;12.326;2024-03-25T04:46:43;3.75;;;2.17;;
15996;SDS011;8103;51.340;12.326;2024-03-25T04:49:10;1.65;;;1.30;;
15996;SDS011;8103;51.340;12.326;2024-03-25T04:51:35;3.78;;;1.98;;
15996;SDS011;8103;51.340;12.326;2024-03-25T04:54:01;4.63;;;1.80;;
15996;SDS011;8103;51.340;12.326;2024-03-25T04:56:27;2.75;;;1.60;;
15996;SDS011;8103;51.340;12.326;2024-03-25T04:58:53;6.13;;;1.90;;
15996;SDS011;8103;51.340;12.326;2024-03-25T05:01:18;2.03;;;1.30;;
15996;SDS011;8103;51.340;12.326;2024-03-25T05:03:44;3.95;;;1.60;;
15996;SDS011;8103;51.340;12.326;2024-03-25T05:06:10;3.25;;;1.65;;
15996;SDS011;8103;51.340;12.326;2024-03-25T05:08:36;3.15;;;1.67;;
15996;SDS011;8103;51.340;12.326;2024-03-25T05:11:02;3.00;;;1.40;;
15996;SDS011;8103;51.340;12.326;2024-03-25T05:13:28;2.60;;;1.33;;
15996;SDS011;8103;51.340;12.326;2024-03-25T05:15:53;3.35;;;1.38;;
15996;SDS011;8103;51.340;12.326;2024-03-25T05:18:19;7.00;;;1.42;;
15996;SDS011;8103;51.340;12.326;2024-03-25T05:20:45;3.88;;;1.88;;
15996;SDS011;8103;51.340;12.326;2024-03-25T05:23:10;3.30;;;1.65;;
15996;SDS011;8103;51.340;12.326;2024-03-25T05:25:36;1.85;;;1.20;;
15996;SDS011;8103;51.340;12.326;2024-03-25T05:28:04;2.58;;;1.50;;
15996;SDS011;8103;51.340;12.326;2024-03-25T05:30:30;2.60;;;1.15;;
15996;SDS011;8103;51.340;12.326;2024-03-25T05:32:55;5.15;;;1.38;;
15996;SDS011;8103;51.340;12.326;2024-03-25T05:35:21;2.38;;;1.25;;
15996;SDS011;8103;51.340;12.326;2024-03-25T05:37:47;2.70;;;1.13;;
15996;SDS011;8103;51.340;12.326;2024-03-25T05:40:13;1.77;;;1.67;;
15996;SDS011;8103;51.340;12.326;2024-03-25T05:42:40;1.65;;;1.15;;
15996;SDS011;8103;51.340;12.326;2024-03-25T05:45:09;1.35;;;0.90;;
15996;SDS011;8103;51.340;12.326;2024-03-25T05:47:35;1.65;;;1.10;;
15996;SDS011;8103;51.340;12.326;2024-03-25T05:50:01;2.30;;;1.27;;
15996;SDS011;8103;51.340;12.326;2024-03-25T05:52:29;2.88;;;1.10;;
15996;SDS011;8103;51.340;12.326;2024-03-25T05:54:55;3.05;;;0.98;;
15996;SDS011;8103;51.340;12.326;2024-03-25T05:57:20;1.83;;;1.42;;
15996;SDS011;8103;51.340;12.326;2024-03-25T05:59:46;2.60;;;1.20;;
15996;SDS011;8103;51.340;12.326;2024-03-25T06:02:12;1.42;;;1.20;;
15996;SDS011;8103;51.340;12.326;2024-03-25T06:04:37;1.88;;;1.30;;
15996;SDS011;8103;51.340;12.326;2024-03-25T06:07:03;2.08;;;1.38;;
15996;SDS011;8103;51.340;12.326;2024-03-25T06:09:29;2.45;;;1.40;;
15996;SDS011;8103;51.340;12.326;2024-03-25T06:11:54;5.30;;;2.17;;
15996;SDS011;8103;51.340;12.326;2024-03-25T06:14:20;6.40;;;3.13;;
15996;SDS011;8103;51.340;12.326;2024-03-25T06:16:46;4.18;;;3.05;;
15996;SDS011;8103;51.340;12.326;2024-03-25T06:19:11;9.10;;;4.35;;
15996;SDS011;8103;51.340;12.326;2024-03-25T06:21:38;8.93;;;5.25;;
15996;SDS011;8103;51.340;12.326;2024-03-25T06:24:04;10.48;;;5.35;;
15996;SDS011;8103;51.340;12.326;2024-03-25T06:26:30;12.25;;;6.00;;
15996;SDS011;8103;51.340;12.326;2024-03-25T06:28:56;8.18;;;5.75;;
15996;SDS011;8103;51.340;12.326;2024-03-25T06:31:21;8.45;;;5.78;;
15996;SDS011;8103;51.340;12.326;2024-03-25T06:34:05;6.63;;;4.32;;
15996;SDS011;8103;51.340;12.326;2024-03-25T06:36:43;4.05;;;3.60;;
15996;SDS011;8103;51.340;12.326;2024-03-25T06:39:10;5.30;;;3.17;;
15996;SDS011;8103;51.340;12.326;2024-03-25T06:41:36;2.53;;;2.17;;
15996;SDS011;8103;51.340;12.326;2024-03-25T06:44:01;3.17;;;1.92;;
15996;SDS011;8103;51.340;12.326;2024-03-25T06:46:27;2.92;;;1.75;;
15996;SDS011;8103;51.340;12.326;2024-03-25T06:48:53;3.03;;;1.20;;
15996;SDS011;8103;51.340;12.326;2024-03-25T06:51:18;2.30;;;0.98;;
15996;SDS011;8103;51.340;12.326;2024-03-25T06:53:44;2.65;;;1.50;;
15996;SDS011;8103;51.340;12.326;2024-03-25T06:56:10;3.05;;;2.00;;
15996;SDS011;8103;51.340;12.326;2024-03-25T06:58:35;3.42;;;1.20;;
15996;SDS011;8103;51.340;12.326;2024-03-25T07:01:05;1.52;;;1.08;;
15996;SDS011;8103;51.340;12.326;2024-03-25T07:03:32;2.92;;;1.60;;
15996;SDS011;8103;51.340;12.326;2024-03-25T07:05:58;7.53;;;1.80;;
15996;SDS011;8103;51.340;12.326;2024-03-25T07:08:25;3.17;;;1.45;;
15996;SDS011;8103;51.340;12.326;2024-03-25T07:10:52;3.47;;;1.77;;
15996;SDS011;8103;51.340;12.326;2024-03-25T07:13:18;2.97;;;1.40;;
15996;SDS011;8103;51.340;12.326;2024-03-25T07:15:44;2.45;;;1.45;;
15996;SDS011;8103;51.340;12.326;2024-03-25T07:18:10;3.72;;;1.40;;
15996;SDS011;8103;51.340;12.326;2024-03-25T07:20:38;1.95;;;1.23;;
15996;SDS011;8103;51.340;12.326;2024-03-25T07:23:04;2.28;;;1.70;;
15996;SDS011;8103;51.340;12.326;2024-03-25T07:25:30;1.58;;;1.33;;
15996;SDS011;8103;51.340;12.326;2024-03-25T07:27:56;1.88;;;0.82;;
15996;SDS011;8103;51.340;12.326;2024-03-25T07:30:22;2.70;;;1.30;;
15996;SDS011;8103;51.340;12.326;2024-03-25T07:32:50;0.88;;;0.70;;
15996;SDS011;8103;51.340;12.326;2024-03-25T07:35:16;2.25;;;1.10;;
15996;SDS011;8103;51.340;12.326;2024-03-25T07:37:42;0.63;;;0.63;;
15996;SDS011;8103;51.340;12.326;2024-03-25T07:40:08;2.92;;;1.10;;
15996;SDS011;8103;51.340;12.326;2024-03-25T07:42:35;2.67;;;1.13;;
15996;SDS011;8103;51.340;12.326;2024-03-25T07:45:01;1.13;;;0.88;;
15996;SDS011;8103;51.340;12.326;2024-03-25T07:47:27;0.75;;;0.73;;
15996;SDS011;8103;51.340;12.326;2024-03-25T07:49:53;1.50;;;0.95;;
15996;SDS011;8103;51.340;12.326;2024-03-25T07:52:19;3.33;;;1.77;;
15996;SDS011;8103;51.340;12.326;2024-03-25T07:54:44;7.30;;;1.73;;
15996;SDS011;8103;51.340;12.326;2024-03-25T07:57:10;4.30;;;1.42;;
15996;SDS011;8103;51.340;12.326;2024-03-25T07:59:36;3.33;;;1.52;;
15996;SDS011;8103;51.340;12.326;2024-03-25T08:02:02;2.53;;;1.58;;
15996;SDS011;8103;51.340;12.326;2024-03-25T08:04:27;1.48;;;1.20;;
15996;SDS011;8103;51.340;12.326;2024-03-25T08:06:54;2.30;;;1.55;;
15996;SDS011;8103;51.340;12.326;2024-03-25T08:09:20;4.55;;;1.38;;
15996;SDS011;8103;51.340;12.326;2024-03-25T08:11:45;3.28;;;1.25;;
15996;SDS011;8103;51.340;12.326;2024-03-25T08:14:11;3.45;;;1.17;;
15996;SDS011;8103;51.340;12.326;2024-03-25T08:16:37;2.08;;;1.20;;
15996;SDS011;8103;51.340;12.326;2024-03-25T08:19:03;5.80;;;0.98;;
15996;SDS011;8103;51.340;12.326;2024-03-25T08:21:29;2.47;;;1.23;;
15996;SDS011;8103;51.340;12.326;2024-03-25T08:23:55;2.92;;;1.05;;
15996;SDS011;8103;51.340;12.326;2024-03-25T08:26:20;4.68;;;1.80;;
15996;SDS011;8103;51.340;12.326;2024-03-25T08:28:46;2.00;;;1.40;;
15996;SDS011;8103;51.340;12.326;2024-03-25T08:31:14;2.10;;;1.50;;
15996;SDS011;8103;51.340;12.326;2024-03-25T08:33:40;4.47;;;2.20;;
15996;SDS011;8103;51.340;12.326;2024-03-25T08:36:06;1.85;;;1.25;;
15996;SDS011;8103;51.340;12.326;2024-03-25T08:38:32;3.08;;;1.70;;
15996;SDS011;8103;51.340;12.326;2024-03-25T08:40:58;3.15;;;1.42;;
15996;SDS011;8103;51.340;12.326;2024-03-25T08:43:24;3.35;;;2.15;;
15996;SDS011;8103;51.340;12.326;2024-03-25T08:45:50;2.92;;;1.23;;
15996;SDS011;8103;51.340;12.326;2024-03-25T08:48:16;3.85;;;1.23;;
15996;SDS011;8103;51.340;12.326;2024-03-25T08:50:42;5.75;;;1.85;;
15996;SDS011;8103;51.340;12.326;2024-03-25T08:53:08;4.35;;;1.63;;
15996;SDS011;8103;51.340;12.326;2024-03-25T08:55:33;2.25;;;1.10;;
15996;SDS011;8103;51.340;12.326;2024-03-25T08:57:59;1.60;;;0.70;;
15996;SDS011;8103;51.340;12.326;2024-03-25T09:00:25;2.47;;;1.10;;
15996;SDS011;8103;51.340;12.326;2024-03-25T09:02:52;2.95;;;1.33;;
15996;SDS011;8103;51.340;12.326;2024-03-25T09:05:19;3.15;;;1.85;;
15996;SDS011;8103;51.340;12.326;2024-03-25T09:07:45;3.42;;;1.83;;
15996;SDS011;8103;51.340;12.326;2024-03-25T09:10:15;1.48;;;1.27;;
15996;SDS011;8103;51.340;12.326;2024-03-25T09:13:00;1.05;;;0.90;;
15996;SDS011;8103;51.340;12.326;2024-03-25T09:15:25;1.65;;;0.98;;
15996;SDS011;8103;51.340;12.326;2024-03-25T09:17:51;5.88;;;1.48;;
15996;SDS011;8103;51.340;12.326;2024-03-25T09:20:17;3.55;;;1.67;;
15996;SDS011;8103;51.340;12.326;2024-03-25T09:22:43;2.05;;;1.48;;
15996;SDS011;8103;51.340;12.326;2024-03-25T09:25:09;1.85;;;1.52;;
15996;SDS011;8103;51.340;12.326;2024-03-25T09:27:35;2.20;;;1.20;;
15996;SDS011;8103;51.340;12.326;2024-03-25T09:30:01;3.38;;;1.52;;
15996;SDS011;8103;51.340;12.326;2024-03-25T09:32:29;3.35;;;1.65;;
15996;SDS011;8103;51.340;12.326;2024-03-25T09:34:58;2.40;;;1.40;;
15996;SDS011;8103;51.340;12.326;2024-03-25T09:37:24;1.67;;;1.15;;
15996;SDS011;8103;51.340;12.326;2024-03-25T09:39:49;1.35;;;1.25;;
15996;SDS011;8103;51.340;12.326;2024-03-25T09:42:17;3.80;;;1.92;;
15996;SDS011;8103;51.340;12.326;2024-03-25T09:44:48;2.83;;;1.20;;
15996;SDS011;8103;51.340;12.326;2024-03-25T09:47:14;3.72;;;1.42;;
15996;SDS011;8103;51.340;12.326;2024-03-25T09:49:41;3.42;;;1.48;;
15996;SDS011;8103;51.340;12.326;2024-03-25T09:52:08;1.73;;;1.50;;
15996;SDS011;8103;51.340;12.326;2024-03-25T09:54:34;3.20;;;1.10;;
15996;SDS011;8103;51.340;12.326;2024-03-25T09:57:00;1.90;;;1.30;;
15996;SDS011;8103;51.340;12.326;2024-03-25T09:59:29;5.32;;;1.23;;
15996;SDS011;8103;51.340;12.326;2024-03-25T10:01:55;5.57;;;1.80;;
15996;SDS011;8103;51.340;12.326;2024-03-25T10:04:23;1.88;;;0.98;;
15996;SDS011;8103;51.340;12.326;2024-03-25T10:06:49;2.50;;;1.23;;
15996;SDS011;8103;51.340;12.326;2024-03-25T10:09:18;1.50;;;1.27;;
15996;SDS011;8103;51.340;12.326;2024-03-25T10:11:48;2.22;;;1.17;;
15996;SDS011;8103;51.340;12.326;2024-03-25T10:14:17;2.38;;;1.23;;
15996;SDS011;8103;51.340;12.326;2024-03-25T10:16:48;1.65;;;1.05;;
15996;SDS011;8103;51.340;12.326;2024-03-25T10:19:14;1.50;;;0.80;;
15996;SDS011;8103;51.340;12.326;2024-03-25T10:21:40;4.40;;;2.08;;
15996;SDS011;8103;51.340;12.326;2024-03-25T10:24:06;2.72;;;1.30;;
15996;SDS011;8103;51.340;12.326;2024-03-25T10:26:32;3.25;;;0.95;;
15996;SDS011;8103;51.340;12.326;2024-03-25T10:29:04;1.10;;;0.82;;
15996;SDS011;8103;51.340;12.326;2024-03-25T10:31:34;2.50;;;0.98;;
15996;SDS011;8103;51.340;12.326;2024-03-25T10:33:59;1.63;;;1.17;;
15996;SDS011;8103;51.340;12.326;2024-03-25T10:36:26;1.55;;;1.00;;
15996;SDS011;8103;51.340;12.326;2024-03-25T10:38:54;3.05;;;0.52;;
15996;SDS011;8103;51.340;12.326;2024-03-25T10:41:20;3.53;;;0.93;;
15996;SDS011;8103;51.340;12.326;2024-03-25T10:43:48;1.55;;;1.45;;
15996;SDS011;8103;51.340;12.326;2024-03-25T10:46:17;2.70;;;1.17;;
15996;SDS011;8103;51.340;12.326;2024-03-25T10:48:47;3.65;;;1.10;;
15996;SDS011;8103;51.340;12.326;2024-03-25T10:51:19;4.05;;;1.20;;
15996;SDS011;8103;51.340;12.326;2024-03-25T10:53:47;2.58;;;1.42;;
15996;SDS011;8103;51.340;12.326;2024-03-25T10:56:18;2.03;;;1.10;;
15996;SDS011;8103;51.340;12.326;2024-03-25T10:58:46;4.20;;;1.10;;
15996;SDS011;8103;51.340;12.326;2024-03-25T11:01:18;2.03;;;1.08;;
15996;SDS011;8103;51.340;12.326;2024-03-25T11:03:48;4.53;;;1.02;;
15996;SDS011;8103;51.340;12.326;2024-03-25T11:06:15;1.55;;;1.00;;
15996;SDS011;8103;51.340;12.326;2024-03-25T11:08:42;1.27;;;0.90;;
15996;SDS011;8103;51.340;12.326;2024-03-25T11:11:12;2.50;;;0.70;;
15996;SDS011;8103;51.340;12.326;2024-03-25T11:13:38;1.00;;;0.73;;
15996;SDS011;8103;51.340;12.326;2024-03-25T11:16:04;2.05;;;1.15;;
15996;SDS011;8103;51.340;12.326;2024-03-25T11:18:32;1.88;;;1.15;;
15996;SDS011;8103;51.340;12.326;2024-03-25T11:21:07;3.42;;;0.93;;
15996;SDS011;8103;51.340;12.326;2024-03-25T11:23:43;3.40;;;1.23;;
15996;SDS011;8103;51.340;12.326;2024-03-25T11:26:16;3.35;;;1.27;;
15996;SDS011;8103;51.340;12.326;2024-03-25T11:28:50;2.83;;;1.10;;
15996;SDS011;8103;51.340;12.326;2024-03-25T11:31:16;2.85;;;1.02;;
15996;SDS011;8103;51.340;12.326;2024-03-25T11:33:44;1.60;;;1.00;;
15996;SDS011;8103;51.340;12.326;2024-03-25T11:36:10;2.30;;;1.42;;
15996;SDS011;8103;51.340;12.326;2024-03-25T11:38:36;4.68;;;0.95;;
15996;SDS011;8103;51.340;12.326;2024-03-25T11:41:05;12.25;;;2.10;;
15996;SDS011;8103;51.340;12.326;2024-03-25T11:43:32;1.80;;;0.95;;
15996;SDS011;8103;51.340;12.326;2024-03-25T11:45:58;2.65;;;1.02;;
15996;SDS011;8103;51.340;12.326;2024-03-25T11:48:24;4.03;;;1.30;;
15996;SDS011;8103;51.340;12.326;2024-03-25T11:50:49;2.55;;;1.10;;
15996;SDS011;8103;51.340;12.326;2024-03-25T11:53:15;3.22;;;1.10;;
15996;SDS011;8103;51.340;12.326;2024-03-25T11:55:45;3.55;;;1.20;;
15996;SDS011;8103;51.340;12.326;2024-03-25T11:58:14;2.25;;;1.23;;
15996;SDS011;8103;51.340;12.326;2024-03-25T12:00:46;3.15;;;1.30;;
15996;SDS011;8103;51.340;12.326;2024-03-25T12:03:16;2.58;;;1.77;;
15996;SDS011;8103;51.340;12.326;2024-03-25T12:05:45;3.13;;;1.25;;
15996;SDS011;8103;51.340;12.326;2024-03-25T12:08:11;3.42;;;1.60;;
15996;SDS011;8103;51.340;12.326;2024-03-25T12:10:38;3.10;;;1.15;;
15996;SDS011;8103;51.340;12.326;2024-03-25T12:13:23;3.38;;;1.55;;
15996;SDS011;8103;51.340;12.326;2024-03-25T12:15:50;2.42;;;0.85;;
15996;SDS011;8103;51.340;12.326;2024-03-25T12:18:16;5.03;;;1.48;;
15996;SDS011;8103;51.340;12.326;2024-03-25T12:20:47;4.68;;;1.70;;
15996;SDS011;8103;51.340;12.326;2024-03-25T12:23:13;4.45;;;1.40;;
15996;SDS011;8103;51.340;12.326;2024-03-25T12:25:40;6.07;;;2.05;;
15996;SDS011;8103;51.340;12.326;2024-03-25T12:28:09;3.13;;;1.88;;
15996;SDS011;8103;51.340;12.326;2024-03-25T12:30:48;2.83;;;1.80;;
15996;SDS011;8103;51.340;12.326;2024-03-25T12:33:18;6.07;;;1.65;;
15996;SDS011;8103;51.340;12.326;2024-03-25T12:35:48;5.22;;;1.83;;
15996;SDS011;8103;51.340;12.326;2024-03-25T12:38:21;8.00;;;2.08;;
15996;SDS011;8103;51.340;12.326;2024-03-25T12:40:51;2.55;;;1.90;;
15996;SDS011;8103;51.340;12.326;2024-03-25T12:43:17;4.80;;;2.03;;
15996;SDS011;8103;51.340;12.326;2024-03-25T12:45:43;4.00;;;1.90;;
15996;SDS011;8103;51.340;12.326;2024-03-25T12:48:09;2.35;;;1.38;;
15996;SDS011;8103;51.340;12.326;2024-03-25T12:50:35;2.15;;;1.63;;
15996;SDS011;8103;51.340;12.326;2024-03-25T12:53:01;3.45;;;1.63;;
15996;SDS011;8103;51.340;12.326;2024-03-25T12:55:31;4.63;;;1.52;;
15996;SDS011;8103;51.340;12.326;2024-03-25T12:57:57;1.90;;;1.35;;
15996;SDS011;8103;51.340;12.326;2024-03-25T13:00:22;6.13;;;1.95;;
15996;SDS011;8103;51.340;12.326;2024-03-25T13:02:48;5.80;;;1.27;;
15996;SDS011;8103;51.340;12.326;2024-03-25T13:05:15;2.15;;;0.82;;
15996;SDS011;8103;51.340;12.326;2024-03-25T13:07:41;1.80;;;1.02;;
15996;SDS011;8103;51.340;12.326;2024-03-25T13:10:07;2.70;;;1.17;;
15996;SDS011;8103;51.340;12.326;2024-03-25T13:12:32;2.97;;;1.02;;
15996;SDS011;8103;51.340;12.326;2024-03-25T13:14:58;0.95;;;0.88;;
15996;SDS011;8103;51.340;12.326;2024-03-25T13:17:24;2.17;;;1.08;;
15996;SDS011;8103;51.340;12.326;2024-03-25T13:19:50;4.07;;;1.73;;
15996;SDS011;8103;51.340;12.326;2024-03-25T13:22:16;3.75;;;1.23;;
15996;SDS011;8103;51.340;12.326;2024-03-25T13:24:42;5.53;;;1.58;;
15996;SDS011;8103;51.340;12.326;2024-03-25T13:27:08;2.05;;;1.40;;
15996;SDS011;8103;51.340;12.326;2024-03-25T13:29:33;3.92;;;1.48;;
15996;SDS011;8103;51.340;12.326;2024-03-25T13:32:02;2.67;;;1.30;;
15996;SDS011;8103;51.340;12.326;2024-03-25T13:34:28;3.25;;;1.30;;
15996;SDS011;8103;51.340;12.326;2024-03-25T13:36:54;1.63;;;1.17;;
15996;SDS011;8103;51.340;12.326;2024-03-25T13:39:20;3.00;;;1.35;;
15996;SDS011;8103;51.340;12.326;2024-03-25T13:41:46;7.13;;;1.75;;
15996;SDS011;8103;51.340;12.326;2024-03-25T13:44:13;4.43;;;1.58;;
15996;SDS011;8103;51.340;12.326;2024-03-25T13:46:39;3.00;;;1.40;;
15996;SDS011;8103;51.340;12.326;2024-03-25T13:49:04;2.97;;;1.50;;
15996;SDS011;8103;51.340;12.326;2024-03-25T13:51:30;4.60;;;2.25;;
15996;SDS011;8103;51.340;12.326;2024-03-25T13:53:56;2.58;;;1.13;;
15996;SDS011;8103;51.340;12.326;2024-03-25T13:56:22;2.72;;;1.98;;
15996;SDS011;8103;51.340;12.326;2024-03-25T13:58:47;4.50;;;2.25;;
15996;SDS011;8103;51.340;12.326;2024-03-25T14:01:13;7.15;;;3.50;;
15996;SDS011;8103;51.340;12.326;2024-03-25T14:03:40;2.92;;;1.35;;
15996;SDS011;8103;51.340;12.326;2024-03-25T14:06:06;2.83;;;1.23;;
15996;SDS011;8103;51.340;12.326;2024-03-25T14:08:32;5.45;;;1.55;;
15996;SDS011;8103;51.340;12.326;2024-03-25T14:10:58;2.55;;;1.10;;
15996;SDS011;8103;51.340;12.326;2024-03-25T14:13:25;2.22;;;1.30;;
15996;SDS011;8103;51.340;12.326;2024-03-25T14:15:51;5.07;;;1.65;;
15996;SDS011;8103;51.340;12.326;2024-03-25T14:18:17;3.88;;;1.30;;
15996;SDS011;8103;51.340;12.326;2024-03-25T14:20:44;1.55;;;0.90;;
15996;SDS011;8103;51.340;12.326;2024-03-25T14:23:10;2.28;;;1.30;;
15996;SDS011;8103;51.340;12.326;2024-03-25T14:25:37;1.52;;;1.33;;
15996;SDS011;8103;51.340;12.326;2024-03-25T14:28:03;2.22;;;1.27;;
15996;SDS011;8103;51.340;12.326;2024-03-25T14:30:29;2.72;;;1.63;;
15996;SDS011;8103;51.340;12.326;2024-03-25T14:32:55;4.03;;;1.45;;
15996;SDS011;8103;51.340;12.326;2024-03-25T14:35:21;5.18;;;1.90;;
15996;SDS011;8103;51.340;12.326;2024-03-25T14:37:47;3.67;;;1.55;;
15996;SDS011;8103;51.340;12.326;2024-03-25T14:40:14;2.95;;;1.38;;
15996;SDS011;8103;51.340;12.326;2024-03-25T14:42:42;5.00;;;1.67;;
15996;SDS011;8103;51.340;12.326;2024-03-25T14:45:09;4.05;;;1.63;;